createdAt,value
2019-05-02T08:22:13.010Z,8.92
2019-05-02T08:24:40.521Z,8.74
2019-05-02T08:27:39.379Z,8.80
2019-05-02T08:30:20.243Z,9.12
2019-05-02T08:32:53.814Z,9.32
2019-05-02T08:35:28.327Z,9.37
2019-05-02T08:38:02.704Z,9.34
2019-05-02T08:40:36.380Z,9.17
2019-05-02T08:43:10.953Z,9.67
2019-05-02T08:45:44.265Z,10.22
2019-05-02T08:48:17.721Z,9.96
2019-05-02T08:50:51.062Z,9.89
2019-05-02T08:53:24.302Z,10.05
2019-05-02T08:55:57.800Z,10.03
2019-05-02T08:58:31.324Z,10.27
2019-05-02T09:01:04.462Z,10.51
2019-05-02T09:03:54.772Z,10.73
2019-05-02T09:06:17.061Z,10.21
2019-05-02T09:08:51.271Z,10.08
2019-05-02T09:11:24.167Z,10.39
2019-05-02T09:13:57.963Z,10.55
2019-05-02T09:16:32.805Z,11.39
2019-05-02T09:19:06.359Z,11.09
2019-05-02T09:21:42.913Z,11.24
2019-05-02T09:24:21.111Z,11.26
2019-05-02T09:26:51.980Z,11.49
2019-05-02T09:29:25.583Z,11.22
2019-05-02T09:31:58.675Z,11.02
2019-05-02T09:34:32.020Z,10.92
2019-05-02T09:37:05.476Z,11.75
2019-05-02T09:39:38.462Z,11.87
2019-05-02T09:42:15.152Z,11.95
2019-05-02T09:44:52.354Z,11.97
2019-05-02T09:47:27.373Z,12.30
2019-05-02T09:50:14.042Z,12.52
2019-05-02T09:52:48.061Z,11.50
2019-05-02T09:55:22.698Z,11.34
2019-05-02T09:57:56.204Z,12.26
2019-05-02T10:00:44.052Z,12.34
2019-05-02T10:03:17.742Z,12.40
2019-05-02T10:05:52.352Z,12.95
2019-05-02T10:08:25.851Z,13.43
2019-05-02T10:10:59.666Z,15.24
2019-05-02T10:13:33.427Z,14.09
2019-05-02T10:16:06.974Z,13.95
2019-05-02T10:18:42.962Z,14.53
2019-05-02T10:21:17.272Z,15.80
2019-05-02T10:23:51.798Z,14.26
2019-05-02T10:26:26.528Z,13.08
2019-05-02T10:29:02.055Z,12.90
2019-05-02T10:31:37.696Z,14.73
2019-05-02T10:34:16.296Z,15.61
2019-05-02T10:36:54.236Z,17.08
2019-05-02T10:39:23.426Z,15.38
2019-05-02T10:41:57.586Z,15.09
2019-05-02T10:44:32.705Z,14.64
2019-05-02T10:47:06.875Z,15.23
2019-05-02T10:49:48.891Z,16.12
2019-05-02T10:52:29.491Z,15.45
2019-05-02T10:54:57.217Z,15.09
2019-05-02T10:57:32.527Z,15.55
2019-05-02T11:00:08.075Z,15.18
2019-05-02T11:02:58.703Z,15.13
2019-05-02T11:05:31.970Z,14.59
2019-05-02T11:08:06.315Z,15.29
2019-05-02T11:10:42.264Z,16.43
2019-05-02T11:13:42.779Z,16.07
2019-05-02T11:16:42.289Z,15.71
2019-05-02T11:19:33.543Z,16.06
2019-05-02T11:22:06.925Z,16.14
2019-05-02T11:24:41.714Z,17.32
2019-05-02T11:27:15.257Z,17.95
2019-05-02T11:29:48.760Z,17.97
2019-05-02T11:32:22.377Z,17.79
2019-05-02T11:34:55.749Z,17.79
2019-05-02T11:37:28.451Z,18.07
2019-05-02T11:40:05.638Z,18.07
2019-05-02T11:42:38.027Z,18.14
2019-05-02T11:45:12.562Z,17.23
2019-05-02T11:47:45.600Z,18.04
2019-05-02T11:50:18.595Z,18.98
2019-05-02T11:52:53.016Z,17.89
2019-05-02T11:55:29.005Z,17.89
2019-05-02T11:58:07.817Z,18.64
2019-05-02T12:00:39.757Z,19.05
2019-05-02T12:03:21.954Z,18.68
2019-05-02T12:05:54.688Z,18.68
2019-05-02T12:08:28.661Z,17.68
2019-05-02T12:11:03.899Z,17.64
2019-05-02T12:13:37.500Z,17.23
2019-05-02T12:16:15.111Z,16.94
2019-05-02T12:18:48.925Z,17.20
2019-05-02T12:21:23.096Z,16.94
2019-05-02T12:23:59.394Z,17.01
2019-05-02T12:26:32.475Z,16.94
2019-05-02T12:29:06.186Z,17.24
2019-05-02T12:31:39.679Z,17.41
2019-05-02T12:34:13.402Z,17.62
2019-05-02T12:36:46.092Z,17.73
2019-05-02T12:39:19.144Z,17.78
2019-05-02T12:41:53.612Z,17.34
2019-05-02T12:44:27.237Z,17.13
2019-05-02T12:47:02.503Z,18.12
2019-05-02T12:49:35.320Z,18.37
2019-05-02T12:52:08.519Z,19.09
2019-05-02T12:54:42.060Z,19.21
2019-05-02T12:57:15.458Z,19.08
2019-05-02T12:59:48.915Z,18.59
2019-05-02T13:02:33.233Z,18.59
2019-05-02T13:05:08.082Z,18.72
2019-05-02T13:07:42.877Z,18.24
2019-05-02T13:10:25.031Z,17.29
2019-05-02T13:12:59.711Z,16.72
2019-05-02T13:15:39.164Z,16.21
2019-05-02T13:18:37.370Z,16.43
2019-05-02T13:21:17.141Z,15.77
2019-05-02T13:24:07.398Z,15.37
2019-05-02T13:26:42.922Z,14.92
2019-05-02T13:29:22.494Z,14.76
2019-05-02T13:32:14.283Z,14.64
2019-05-02T13:34:57.082Z,14.83
2019-05-02T13:37:39.026Z,14.88
2019-05-02T13:40:23.110Z,15.21
2019-05-02T13:43:01.819Z,15.38
2019-05-02T13:45:55.331Z,15.46
2019-05-02T13:48:33.303Z,15.20
2019-05-02T13:51:14.309Z,14.98
2019-05-02T13:54:02.314Z,14.73
2019-05-02T13:56:48.600Z,14.62
2019-05-02T13:59:22.975Z,14.43
2019-05-02T14:02:05.317Z,14.34
2019-05-02T14:04:38.756Z,14.42
2019-05-02T14:07:17.361Z,14.35
2019-05-02T14:09:57.988Z,14.38
2019-05-02T14:12:55.248Z,14.24
2019-05-02T14:15:34.144Z,14.26
2019-05-02T14:18:08.009Z,14.20
2019-05-02T14:20:43.542Z,14.14
2019-05-02T14:23:18.153Z,13.98
2019-05-02T14:25:52.120Z,12.97
2019-05-02T14:28:26.848Z,12.13
2019-05-02T14:31:02.277Z,11.66
2019-05-02T14:33:37.438Z,11.25
2019-05-02T14:36:13.549Z,11.26
2019-05-02T14:38:47.009Z,11.08
2019-05-02T14:41:29.663Z,11.05
2019-05-02T14:44:02.889Z,10.94
2019-05-02T14:46:39.379Z,11.03
2019-05-02T14:49:16.593Z,10.99
2019-05-02T14:51:48.318Z,10.96
2019-05-02T14:54:22.903Z,11.01
2019-05-02T14:57:02.017Z,10.95
2019-05-02T14:59:35.594Z,10.99
2019-05-02T15:02:13.811Z,10.87
2019-05-02T15:04:48.802Z,10.87
2019-05-02T15:07:26.570Z,10.76
2019-05-02T15:10:02.698Z,10.73
2019-05-02T15:12:33.726Z,10.73
2019-05-02T15:15:12.278Z,10.71
2019-05-02T15:17:46.298Z,10.52
2019-05-02T15:20:22.393Z,10.54
2019-05-02T15:23:02.567Z,10.51
2019-05-02T15:25:35.397Z,10.43
2019-05-02T15:28:13.061Z,10.45
2019-05-02T15:30:49.710Z,10.32
2019-05-02T15:33:25.593Z,10.37
2019-05-02T15:36:07.498Z,10.27
2019-05-02T15:38:45.542Z,10.19
2019-05-02T15:41:15.505Z,10.16
2019-05-02T15:43:49.283Z,10.19
2019-05-02T15:46:23.716Z,10.15
2019-05-02T15:49:01.898Z,10.15
2019-05-02T15:51:38.054Z,10.09
2019-05-02T15:54:09.150Z,10.11
2019-05-02T15:56:59.943Z,10.11
2019-05-02T15:59:44.879Z,10.06
2019-05-02T16:02:17.698Z,10.08
2019-05-02T16:04:52.146Z,10.07
2019-05-02T16:07:25.214Z,10.08
2019-05-02T16:10:01.150Z,10.18
2019-05-02T16:12:36.057Z,10.21
2019-05-02T16:15:18.171Z,10.27
2019-05-02T16:17:46.225Z,10.34
2019-05-02T16:20:40.494Z,10.30
2019-05-02T16:23:19.509Z,10.27
2019-05-02T16:25:52.290Z,10.24
2019-05-02T16:28:25.556Z,10.18
2019-05-02T16:31:02.070Z,10.18
2019-05-02T16:33:37.126Z,10.20
2019-05-02T16:36:12.692Z,10.12
2019-05-02T16:38:46.771Z,10.12
2019-05-02T16:41:21.783Z,10.11
2019-05-02T16:43:56.358Z,10.11
2019-05-02T16:46:32.241Z,10.11
2019-05-02T16:49:08.904Z,10.12
2019-05-02T16:51:43.747Z,10.12
2019-05-02T16:54:16.850Z,10.16
2019-05-02T16:56:51.798Z,10.18
2019-05-02T16:59:26.094Z,10.20
2019-05-02T17:02:07.543Z,10.26
2019-05-02T17:04:34.872Z,10.20
2019-05-02T17:07:12.310Z,10.18
2019-05-02T17:10:08.429Z,10.11
2019-05-02T17:12:42.870Z,10.12
2019-05-02T17:15:31.430Z,10.06
2019-05-02T17:18:05.043Z,10.09
2019-05-02T17:20:39.176Z,10.17
2019-05-02T17:23:12.878Z,10.16
2019-05-02T17:25:46.696Z,10.20
2019-05-02T17:28:22.190Z,10.13
2019-05-02T17:30:55.473Z,10.11
2019-05-02T17:33:29.317Z,10.07
2019-05-02T17:36:02.313Z,10.08
2019-05-02T17:38:36.074Z,10.01
2019-05-02T17:41:11.723Z,10.00
2019-05-02T17:43:45.266Z,9.95
2019-05-02T17:46:19.945Z,9.91
2019-05-02T17:48:53.937Z,9.85
2019-05-02T17:51:49.309Z,9.80
2019-05-02T17:54:26.188Z,9.76
2019-05-02T17:56:59.163Z,9.72
2019-05-02T17:59:37.617Z,9.69
2019-05-02T18:02:12.397Z,9.67
2019-05-02T18:04:51.380Z,9.64
2019-05-02T18:07:28.944Z,9.62
2019-05-02T18:09:55.770Z,9.63
2019-05-02T18:12:29.527Z,9.58
2019-05-02T18:15:03.388Z,9.57
2019-05-02T18:17:37.582Z,9.59
2019-05-02T18:20:12.469Z,9.61
2019-05-02T18:22:48.974Z,9.59
2019-05-02T18:25:25.277Z,9.58
2019-05-02T18:27:57.416Z,9.56
2019-05-02T18:30:30.484Z,9.55
2019-05-02T18:33:07.291Z,9.52
2019-05-02T18:35:43.083Z,9.50
2019-05-02T18:38:22.424Z,9.50
2019-05-02T18:41:00.384Z,9.50
2019-05-02T18:43:36.019Z,9.50
2019-05-02T18:46:07.730Z,9.50
2019-05-02T18:48:46.122Z,9.50
2019-05-02T18:51:19.101Z,9.48
2019-05-02T18:53:53.084Z,9.48
2019-05-02T18:56:25.779Z,9.46
2019-05-02T18:58:59.341Z,9.46
2019-05-02T19:01:32.546Z,9.42
2019-05-02T19:04:05.123Z,9.33
2019-05-02T19:06:38.962Z,9.32
2019-05-02T19:09:17.436Z,9.30
2019-05-02T19:11:49.302Z,9.30
2019-05-02T19:14:26.027Z,9.30
2019-05-02T19:17:02.910Z,9.31
2019-05-02T19:19:36.787Z,9.28
2019-05-02T19:22:13.410Z,9.29
2019-05-02T19:24:42.844Z,9.23
2019-05-02T19:27:21.033Z,9.20
2019-05-02T19:29:54.877Z,9.16
2019-05-02T19:32:28.449Z,9.17
2019-05-02T19:35:03.279Z,9.15
2019-05-02T19:37:44.590Z,9.17
2019-05-02T19:40:20.095Z,9.16
2019-05-02T19:42:52.685Z,9.15
2019-05-02T19:45:26.724Z,9.09
2019-05-02T19:47:59.391Z,9.05
2019-05-02T19:50:41.724Z,9.01
2019-05-02T19:53:18.120Z,9.04
2019-05-02T19:55:49.075Z,9.01
2019-05-02T19:58:23.064Z,9.01
2019-05-02T20:00:56.057Z,8.99
2019-05-02T20:03:32.150Z,8.96
2019-05-02T20:06:06.426Z,8.89
2019-05-02T20:08:41.844Z,8.87
2019-05-02T20:11:15.001Z,8.89
2019-05-02T20:13:50.646Z,8.88
2019-05-02T20:16:49.375Z,8.84
2019-05-02T20:19:26.829Z,8.77
2019-05-02T20:22:11.974Z,8.73
2019-05-02T20:24:59.900Z,8.68
2019-05-02T20:27:32.799Z,8.71
2019-05-02T20:30:06.568Z,8.60
2019-05-02T20:32:39.749Z,8.55
2019-05-02T20:35:13.153Z,8.55
2019-05-02T20:37:45.817Z,8.46
2019-05-02T20:40:31.690Z,8.41
2019-05-02T20:43:05.569Z,8.32
2019-05-02T20:45:39.124Z,8.25
2019-05-02T20:48:12.232Z,8.23
2019-05-02T20:50:45.721Z,8.17
2019-05-02T20:53:30.764Z,8.13
2019-05-02T20:55:54.020Z,8.05
2019-05-02T20:58:26.752Z,8.01
2019-05-02T21:01:07.766Z,8.08
2019-05-02T21:03:34.849Z,8.00
2019-05-02T21:06:41.381Z,8.04
2019-05-02T21:09:32.426Z,7.96
2019-05-02T21:12:06.732Z,8.08
2019-05-02T21:14:41.601Z,8.07
2019-05-02T21:17:14.659Z,8.05
2019-05-02T21:19:48.588Z,8.11
2019-05-02T21:22:26.395Z,8.07
2019-05-02T21:24:59.509Z,8.05
2019-05-02T21:27:32.512Z,8.06
2019-05-02T21:30:07.524Z,8.01
2019-05-02T21:32:42.764Z,7.94
2019-05-02T21:35:16.150Z,7.92
2019-05-02T21:37:50.064Z,7.93
2019-05-02T21:40:25.556Z,7.80
2019-05-02T21:42:57.667Z,7.86
2019-05-02T21:45:31.716Z,7.77
2019-05-02T21:48:04.799Z,7.89
2019-05-02T21:50:44.341Z,7.75
2019-05-02T21:53:36.877Z,7.71
2019-05-02T21:56:21.855Z,7.65
2019-05-02T21:59:12.132Z,7.52
2019-05-02T22:01:49.146Z,7.53
2019-05-02T22:04:22.478Z,7.52
2019-05-02T22:06:56.084Z,7.50
2019-05-02T22:09:29.332Z,7.59
2019-05-02T22:12:03.295Z,7.51
2019-05-02T22:14:36.519Z,7.48
2019-05-02T22:17:10.092Z,7.44
2019-05-02T22:19:43.453Z,7.47
2019-05-02T22:22:16.913Z,7.36
2019-05-02T22:24:49.865Z,7.35
2019-05-02T22:27:22.860Z,7.41
2019-05-02T22:29:56.244Z,7.38
2019-05-02T22:32:29.595Z,7.22
2019-05-02T22:35:02.549Z,7.24
2019-05-02T22:37:37.983Z,7.30
2019-05-02T22:40:13.566Z,7.24
2019-05-02T22:42:47.145Z,7.18
2019-05-02T22:45:21.780Z,7.25
2019-05-02T22:47:54.987Z,7.19
2019-05-02T22:50:27.952Z,7.27
2019-05-02T22:53:00.519Z,7.18
2019-05-02T22:55:33.999Z,7.18
2019-05-02T22:58:07.019Z,7.17
2019-05-02T23:00:41.643Z,7.19
2019-05-02T23:03:14.887Z,7.15
2019-05-02T23:05:49.042Z,7.13
2019-05-02T23:08:22.545Z,7.12
2019-05-02T23:10:56.313Z,7.14
2019-05-02T23:13:31.896Z,7.17
2019-05-02T23:16:04.033Z,7.14
2019-05-02T23:18:37.494Z,7.11
2019-05-02T23:21:12.683Z,7.16
2019-05-02T23:23:46.072Z,7.06
2019-05-02T23:26:28.295Z,7.04
2019-05-02T23:29:02.347Z,7.01
2019-05-02T23:31:34.986Z,7.04
2019-05-02T23:34:07.978Z,6.98
2019-05-02T23:36:41.711Z,7.00
2019-05-02T23:39:14.457Z,7.00
2019-05-02T23:41:47.899Z,6.95
2019-05-02T23:44:22.693Z,6.88
2019-05-02T23:46:55.476Z,6.87
2019-05-02T23:49:28.868Z,6.93
2019-05-02T23:52:02.377Z,6.88
2019-05-02T23:54:35.043Z,6.86
2019-05-02T23:57:08.334Z,6.92
2019-05-02T23:59:42.448Z,6.95
